createdAt,value
2023-01-04T00:00:56.385Z,102373.50
2023-01-04T00:01:57.862Z,102373.38
2023-01-04T00:02:59.518Z,102375.13
2023-01-04T00:04:01.146Z,102370.53
2023-01-04T00:05:02.693Z,102352.22
2023-01-04T00:06:06.289Z,102372.31
2023-01-04T00:07:07.693Z,102366.91
2023-01-04T00:08:09.102Z,102346.75
2023-01-04T00:09:10.538Z,102359.28
2023-01-04T00:10:11.995Z,102368.09
2023-01-04T00:11:17.676Z,102365.84
2023-01-04T00:12:19.089Z,102355.91
2023-01-04T00:13:20.495Z,102356.41
2023-01-04T00:14:25.381Z,102359.19
2023-01-04T00:15:33.014Z,102346.72
2023-01-04T00:16:34.544Z,102349.38
2023-01-04T00:17:36.103Z,102347.41
2023-01-04T00:18:37.933Z,102343.06
2023-01-04T00:19:39.338Z,102351.03
2023-01-04T00:20:40.726Z,102343.91
2023-01-04T00:21:42.229Z,102334.81
2023-01-04T00:22:43.835Z,102329.19
2023-01-04T00:23:47.754Z,102328.41
2023-01-04T00:24:49.156Z,102316.72
2023-01-04T00:25:50.533Z,102333.28
2023-01-04T00:26:51.959Z,102332.44
2023-01-04T00:27:53.449Z,102338.28
2023-01-04T00:28:58.548Z,102331.59
2023-01-04T00:29:59.965Z,102329.78
2023-01-04T00:31:06.224Z,102328.94
2023-01-04T00:32:07.807Z,102319.88
2023-01-04T00:33:09.229Z,102330.78
2023-01-04T00:34:16.774Z,102323.44
2023-01-04T00:35:44.033Z,102320.34
2023-01-04T00:36:39.651Z,102324.19
2023-01-04T00:37:41.303Z,102326.00
2023-01-04T00:38:44.371Z,102319.47
2023-01-04T00:39:45.891Z,102314.19
2023-01-04T00:40:47.377Z,102303.13
2023-01-04T00:42:00.303Z,102297.97
2023-01-04T00:43:02.559Z,102299.72
2023-01-04T00:44:08.331Z,102300.75
2023-01-04T00:45:10.355Z,102297.25
2023-01-04T00:46:11.822Z,102296.66
2023-01-04T00:47:13.291Z,102292.22
2023-01-04T00:48:14.697Z,102296.16
2023-01-04T00:49:16.123Z,102288.06
2023-01-04T00:50:17.587Z,102291.69
2023-01-04T00:51:18.997Z,102291.78
2023-01-04T00:52:20.417Z,102279.78
2023-01-04T00:53:21.865Z,102286.03
2023-01-04T00:54:24.192Z,102294.28
2023-01-04T00:55:25.610Z,102282.38
2023-01-04T00:56:29.507Z,102283.13
2023-01-04T00:57:30.916Z,102275.72
2023-01-04T00:58:32.384Z,102274.81
2023-01-04T00:59:33.861Z,102277.38
2023-01-04T01:00:35.872Z,102270.19
2023-01-04T01:01:37.411Z,102250.97
2023-01-04T01:02:39.038Z,102269.19
2023-01-04T01:03:40.920Z,102260.03
2023-01-04T01:04:42.574Z,102256.44
2023-01-04T01:05:44.179Z,102251.84
2023-01-04T01:06:46.202Z,102248.56
2023-01-04T01:07:47.675Z,102248.41
2023-01-04T01:08:49.104Z,102242.16
2023-01-04T01:09:50.547Z,102244.97
2023-01-04T01:10:53.445Z,102246.84
2023-01-04T01:11:55.041Z,102249.03
2023-01-04T01:12:56.419Z,102249.53
2023-01-04T01:13:58.968Z,102237.66
2023-01-04T01:15:00.855Z,102252.31
2023-01-04T01:16:03.302Z,102244.44
2023-01-04T01:17:04.882Z,102241.44
2023-01-04T01:18:06.393Z,102247.53
2023-01-04T01:19:07.870Z,102253.66
2023-01-04T01:20:10.210Z,102246.44
2023-01-04T01:21:23.701Z,102250.47
2023-01-04T01:22:25.221Z,102250.84
2023-01-04T01:23:26.749Z,102236.97
2023-01-04T01:24:28.274Z,102237.75
2023-01-04T01:25:29.746Z,102238.38
2023-01-04T01:26:31.633Z,102253.66
2023-01-04T01:27:33.050Z,102240.22
2023-01-04T01:28:35.793Z,102246.56
2023-01-04T01:29:37.218Z,102254.22
2023-01-04T01:30:42.777Z,102249.44
2023-01-04T01:31:44.424Z,102245.97
2023-01-04T01:32:45.910Z,102249.59
2023-01-04T01:33:48.941Z,102245.06
2023-01-04T01:34:50.373Z,102244.84
2023-01-04T01:35:52.011Z,102241.44
2023-01-04T01:36:53.546Z,102241.75
2023-01-04T01:37:54.978Z,102248.03
2023-01-04T01:38:56.475Z,102234.03
2023-01-04T01:40:00.887Z,102238.03
2023-01-04T01:41:03.908Z,102245.19
2023-01-04T01:42:05.341Z,102242.75
2023-01-04T01:43:21.118Z,102241.53
2023-01-04T01:44:45.046Z,102233.63
2023-01-04T01:45:54.043Z,102229.00
2023-01-04T01:46:55.665Z,102237.81
2023-01-04T01:48:06.899Z,102229.63
2023-01-04T01:49:14.078Z,102239.31
2023-01-04T01:50:24.259Z,102236.47
2023-01-04T01:51:27.367Z,102244.69
2023-01-04T01:52:35.025Z,102239.16
2023-01-04T01:53:41.894Z,102240.81
2023-01-04T01:54:47.613Z,102232.25
2023-01-04T01:55:51.762Z,102233.22
2023-01-04T01:56:57.458Z,102223.34
2023-01-04T01:58:00.620Z,102234.78
2023-01-04T01:59:05.303Z,102240.00
2023-01-04T02:00:12.687Z,102237.31
2023-01-04T02:01:14.354Z,102237.81
2023-01-04T02:02:15.950Z,102231.63
2023-01-04T02:03:23.192Z,102228.28
2023-01-04T02:04:24.781Z,102236.97
2023-01-04T02:05:28.264Z,102230.56
2023-01-04T02:06:33.615Z,102223.34
2023-01-04T02:07:36.205Z,102224.78
2023-01-04T02:08:40.178Z,102230.09
2023-01-04T02:09:42.701Z,102224.31
2023-01-04T02:10:44.299Z,102228.00
2023-01-04T02:11:45.985Z,102216.75
2023-01-04T02:12:50.365Z,102216.66
2023-01-04T02:14:10.902Z,102211.94
2023-01-04T02:15:12.726Z,102210.88
2023-01-04T02:16:37.150Z,102215.22
2023-01-04T02:17:54.371Z,102212.44
2023-01-04T02:19:15.663Z,102195.28
2023-01-04T02:20:38.987Z,102189.19
2023-01-04T02:21:59.117Z,102179.84
2023-01-04T02:23:21.682Z,102179.84
2023-01-04T02:24:33.457Z,102170.47
2023-01-04T02:25:56.625Z,102170.25
2023-01-04T02:27:14.060Z,102151.44
2023-01-04T02:28:21.487Z,102150.44
2023-01-04T02:29:50.712Z,102146.13
2023-01-04T02:31:10.375Z,102141.53
2023-01-04T02:32:43.887Z,102144.13
2023-01-04T02:34:06.408Z,102141.53
2023-01-04T02:35:07.811Z,102122.53
2023-01-04T02:36:21.371Z,102135.31
2023-01-04T02:37:59.988Z,102130.88
2023-01-04T02:39:23.282Z,102123.72
2023-01-04T02:40:32.409Z,102116.63
2023-01-04T02:41:41.347Z,102114.78
2023-01-04T02:43:24.934Z,102113.19
2023-01-04T02:44:55.807Z,102111.13
2023-01-04T02:46:05.841Z,102106.69
2023-01-04T02:47:15.851Z,102105.56
2023-01-04T02:48:35.983Z,102096.66
2023-01-04T02:50:02.294Z,102092.25
2023-01-04T02:51:05.964Z,102102.06
2023-01-04T02:52:08.611Z,102088.63
2023-01-04T02:53:17.517Z,102091.00
2023-01-04T02:54:25.003Z,102083.91
2023-01-04T02:55:36.363Z,102088.53
2023-01-04T02:57:05.216Z,102092.03
2023-01-04T02:58:30.966Z,102094.78
2023-01-04T02:59:54.108Z,102094.91
2023-01-04T03:01:44.271Z,102093.34
2023-01-04T03:03:04.565Z,102101.41
2023-01-04T03:04:52.944Z,102098.66
2023-01-04T03:06:15.335Z,102091.56
2023-01-04T03:07:34.896Z,102082.88
2023-01-04T03:08:41.936Z,102075.56
2023-01-04T03:09:53.842Z,102077.41
2023-01-04T03:11:26.760Z,102073.97
2023-01-04T03:12:35.369Z,102078.69
2023-01-04T03:13:46.461Z,102067.41
2023-01-04T03:14:52.966Z,102077.06
2023-01-04T03:15:59.734Z,102067.31
2023-01-04T03:17:07.662Z,102072.44
2023-01-04T03:18:19.149Z,102070.84
2023-01-04T03:19:42.327Z,102065.53
2023-01-04T03:20:46.683Z,102057.66
2023-01-04T03:21:48.265Z,102062.00
2023-01-04T03:23:22.988Z,102059.09
2023-01-04T03:24:42.923Z,102061.38
2023-01-04T03:26:08.306Z,102055.44
2023-01-04T03:27:28.759Z,102056.16
2023-01-04T03:28:52.485Z,102057.91
2023-01-04T03:30:20.943Z,102051.34
2023-01-04T03:31:47.626Z,102036.06
2023-01-04T03:33:23.032Z,102042.75
2023-01-04T03:34:43.485Z,102024.56
2023-01-04T03:35:50.084Z,102025.94
2023-01-04T03:37:19.599Z,102028.56
2023-01-04T03:39:02.908Z,102026.22
2023-01-04T03:40:48.353Z,102017.56
2023-01-04T03:42:26.790Z,102016.50
2023-01-04T03:44:04.921Z,102007.06
2023-01-04T03:45:35.907Z,102001.03
2023-01-04T03:47:22.995Z,102013.31
2023-01-04T03:48:59.617Z,102007.16
2023-01-04T03:50:19.539Z,101997.69
2023-01-04T03:51:28.840Z,101989.44
2023-01-04T03:52:33.869Z,101995.03
2023-01-04T03:53:47.002Z,101995.84
2023-01-04T03:54:50.244Z,101986.59
2023-01-04T03:55:54.091Z,101978.25
2023-01-04T03:56:57.498Z,101983.09
2023-01-04T03:57:59.701Z,101991.22
2023-01-04T03:59:01.431Z,101991.00
2023-01-04T04:00:09.501Z,101988.00
2023-01-04T04:01:12.139Z,101978.47
2023-01-04T04:02:14.625Z,101981.31
2023-01-04T04:03:16.214Z,101982.44
2023-01-04T04:04:36.269Z,101972.88
2023-01-04T04:05:59.112Z,101965.81
2023-01-04T04:07:22.611Z,101962.59
2023-01-04T04:08:30.146Z,101952.47
2023-01-04T04:09:31.763Z,101967.97
2023-01-04T04:10:33.237Z,101975.03
2023-01-04T04:11:34.703Z,101973.88
2023-01-04T04:12:36.252Z,101973.00
2023-01-04T04:13:37.708Z,101969.16
2023-01-04T04:14:41.798Z,101958.41
2023-01-04T04:15:43.218Z,101960.44
2023-01-04T04:16:44.705Z,101951.50
2023-01-04T04:17:46.195Z,101958.91
2023-01-04T04:18:48.184Z,101949.69
2023-01-04T04:19:49.683Z,101947.84
2023-01-04T04:20:58.063Z,101947.84
2023-01-04T04:21:59.507Z,101949.69
2023-01-04T04:23:01.120Z,101939.72
2023-01-04T04:24:03.051Z,101939.97
2023-01-04T04:25:04.903Z,101935.38
2023-01-04T04:26:06.437Z,101928.69
2023-01-04T04:27:07.865Z,101932.03
2023-01-04T04:28:09.335Z,101933.78
2023-01-04T04:29:10.810Z,101928.19
2023-01-04T04:30:12.518Z,101927.19
2023-01-04T04:31:14.013Z,101922.59
2023-01-04T04:32:15.584Z,101915.28
2023-01-04T04:33:17.081Z,101912.31
2023-01-04T04:34:18.758Z,101911.53
2023-01-04T04:35:20.186Z,101905.53
2023-01-04T04:36:21.616Z,101916.63
2023-01-04T04:37:23.092Z,101903.69
2023-01-04T04:38:24.562Z,101898.47
2023-01-04T04:39:25.977Z,101903.13
2023-01-04T04:40:45.839Z,101906.72
2023-01-04T04:41:47.275Z,101905.97
2023-01-04T04:42:48.674Z,101897.00
2023-01-04T04:43:50.092Z,101888.75
2023-01-04T04:44:51.549Z,101886.25
2023-01-04T04:45:53.028Z,101895.16
2023-01-04T04:46:54.457Z,101883.22
2023-01-04T04:47:55.871Z,101873.13
2023-01-04T04:48:57.661Z,101876.69
2023-01-04T04:49:59.066Z,101870.38
2023-01-04T04:51:03.030Z,101866.13
2023-01-04T04:52:04.625Z,101866.34
2023-01-04T04:53:06.055Z,101877.03
2023-01-04T04:54:09.238Z,101862.00
2023-01-04T04:55:10.693Z,101867.59
2023-01-04T04:56:12.430Z,101855.69
2023-01-04T04:57:13.870Z,101846.63
2023-01-04T04:58:15.344Z,101844.59
2023-01-04T04:59:16.866Z,101845.59
2023-01-04T05:00:18.323Z,101838.41
2023-01-04T05:01:20.160Z,101834.91
2023-01-04T05:02:21.902Z,101830.38
2023-01-04T05:03:23.565Z,101833.41
2023-01-04T05:04:25.122Z,101824.47
2023-01-04T05:05:27.158Z,101828.03
2023-01-04T05:06:29.058Z,101819.19
2023-01-04T05:07:30.488Z,101825.06
2023-01-04T05:08:31.919Z,101814.34
2023-01-04T05:09:33.347Z,101806.69
2023-01-04T05:10:34.776Z,101815.59
2023-01-04T05:11:54.783Z,101817.34
2023-01-04T05:13:01.915Z,101801.16
2023-01-04T05:14:03.429Z,101813.88
2023-01-04T05:15:05.215Z,101811.34
2023-01-04T05:16:08.152Z,101804.22
2023-01-04T05:17:11.137Z,101802.66
2023-01-04T05:18:14.199Z,101797.59
2023-01-04T05:19:18.536Z,101794.31
2023-01-04T05:20:20.042Z,101787.22
2023-01-04T05:21:21.477Z,101792.53
2023-01-04T05:22:22.908Z,101785.31
2023-01-04T05:23:24.639Z,101783.75
2023-01-04T05:24:26.111Z,101773.81
2023-01-04T05:25:27.852Z,101781.84
2023-01-04T05:26:29.273Z,101779.13
2023-01-04T05:27:30.720Z,101772.03
2023-01-04T05:28:32.279Z,101776.47
2023-01-04T05:29:52.346Z,101759.59
2023-01-04T05:30:55.406Z,101760.50
2023-01-04T05:31:56.935Z,101758.78
2023-01-04T05:32:59.057Z,101746.50
2023-01-04T05:34:00.585Z,101742.91
2023-01-04T05:35:02.050Z,101740.41
2023-01-04T05:36:04.182Z,101738.69
2023-01-04T05:37:09.680Z,101720.56
2023-01-04T05:38:11.531Z,101734.13
2023-01-04T05:39:15.510Z,101718.13
2023-01-04T05:40:17.080Z,101718.13
2023-01-04T05:41:37.110Z,101709.19
2023-01-04T05:42:38.528Z,101706.63
2023-01-04T05:43:39.921Z,101704.97
2023-01-04T05:44:41.315Z,101702.56
2023-01-04T05:45:51.184Z,101703.50
2023-01-04T05:46:52.602Z,101690.06
2023-01-04T05:48:00.724Z,101700.72
2023-01-04T05:49:02.053Z,101697.31
2023-01-04T05:50:04.569Z,101699.13
2023-01-04T05:51:06.048Z,101688.28
2023-01-04T05:52:07.461Z,101693.56
2023-01-04T05:53:09.204Z,101690.97
2023-01-04T05:54:10.604Z,101682.97
2023-01-04T05:55:12.146Z,101689.50
2023-01-04T05:56:13.578Z,101687.72
2023-01-04T05:57:15.409Z,101681.47
2023-01-04T05:58:16.882Z,101685.09
2023-01-04T05:59:18.310Z,101678.09
2023-01-04T06:00:20.068Z,101686.44
2023-01-04T06:01:21.567Z,101678.16
2023-01-04T06:02:29.852Z,101681.66
2023-01-04T06:03:31.416Z,101657.16
2023-01-04T06:04:32.920Z,101671.56
2023-01-04T06:05:34.594Z,101666.44
2023-01-04T06:06:35.983Z,101669.13
2023-01-04T06:07:39.002Z,101670.97
2023-01-04T06:08:40.437Z,101668.97
2023-01-04T06:09:42.714Z,101658.97
2023-01-04T06:10:44.143Z,101671.78
2023-01-04T06:11:45.614Z,101656.41
2023-01-04T06:12:47.872Z,101645.56
2023-01-04T06:13:49.254Z,101664.75
2023-01-04T06:14:50.693Z,101655.81
2023-01-04T06:15:52.092Z,101665.69
2023-01-04T06:16:53.580Z,101654.03
2023-01-04T06:17:54.999Z,101649.63
2023-01-04T06:18:59.517Z,101647.88
2023-01-04T06:20:01.428Z,101627.81
2023-01-04T06:21:05.356Z,101642.34
2023-01-04T06:22:07.341Z,101649.00
2023-01-04T06:23:12.908Z,101632.97
2023-01-04T06:24:18.807Z,101640.09
2023-01-04T06:25:20.226Z,101636.38
2023-01-04T06:26:21.685Z,101645.34
2023-01-04T06:27:23.208Z,101636.28
2023-01-04T06:28:24.590Z,101634.66
2023-01-04T06:29:26.298Z,101623.34
2023-01-04T06:30:28.976Z,101629.03
2023-01-04T06:31:30.507Z,101618.94
2023-01-04T06:32:31.965Z,101623.28
2023-01-04T06:33:33.996Z,101607.81
2023-01-04T06:34:35.401Z,101617.94
2023-01-04T06:35:36.894Z,101614.22
2023-01-04T06:36:38.884Z,101605.16
2023-01-04T06:37:40.691Z,101592.81
2023-01-04T06:38:42.119Z,101594.75
2023-01-04T06:39:44.238Z,101593.84
2023-01-04T06:40:45.637Z,101605.44
2023-01-04T06:41:47.023Z,101591.00
2023-01-04T06:42:48.464Z,101586.50
2023-01-04T06:43:50.334Z,101586.47
2023-01-04T06:44:51.756Z,101588.34
2023-01-04T06:45:53.218Z,101585.56
2023-01-04T06:46:54.722Z,101576.53
2023-01-04T06:47:56.117Z,101584.09
2023-01-04T06:48:58.151Z,101569.81
2023-01-04T06:49:59.483Z,101577.00
2023-01-04T06:51:01.174Z,101558.91
2023-01-04T06:52:02.617Z,101566.16
2023-01-04T06:53:04.062Z,101565.31
2023-01-04T06:54:05.829Z,101566.06
2023-01-04T06:55:10.868Z,101565.56
2023-01-04T06:56:12.656Z,101570.19
2023-01-04T06:57:14.058Z,101562.00
2023-01-04T06:58:16.415Z,101564.81
2023-01-04T06:59:17.803Z,101559.47
2023-01-04T07:00:19.615Z,101554.88
2023-01-04T07:01:21.069Z,101555.84
2023-01-04T07:02:22.859Z,101554.97
2023-01-04T07:03:24.438Z,101541.44
2023-01-04T07:04:25.946Z,101545.31
2023-01-04T07:05:27.447Z,101556.00
2023-01-04T07:06:28.894Z,101544.25
2023-01-04T07:07:30.325Z,101545.19
2023-01-04T07:08:31.919Z,101545.16
2023-01-04T07:09:33.805Z,101544.47
2023-01-04T07:10:35.676Z,101532.75
2023-01-04T07:11:37.079Z,101539.97
2023-01-04T07:12:40.994Z,101538.22
2023-01-04T07:13:42.397Z,101540.25
2023-01-04T07:14:43.787Z,101527.66
2023-01-04T07:15:45.216Z,101526.78
2023-01-04T07:16:46.767Z,101532.34
2023-01-04T07:17:49.243Z,101536.75
2023-01-04T07:18:50.692Z,101527.75
2023-01-04T07:19:52.469Z,101529.56
2023-01-04T07:20:53.942Z,101526.00
2023-01-04T07:21:55.841Z,101529.59
2023-01-04T07:22:57.355Z,101525.00
2023-01-04T07:23:58.751Z,101516.88
2023-01-04T07:25:00.283Z,101502.66
2023-01-04T07:26:02.781Z,101500.78
2023-01-04T07:27:04.359Z,101511.69
2023-01-04T07:28:05.910Z,101502.69
2023-01-04T07:29:16.955Z,101500.94
2023-01-04T07:30:19.484Z,101497.25
2023-01-04T07:31:23.419Z,101491.78
2023-01-04T07:32:25.014Z,101507.06
2023-01-04T07:33:30.836Z,101494.63
2023-01-04T07:34:32.276Z,101492.78
2023-01-04T07:35:33.712Z,101498.19
2023-01-04T07:36:35.168Z,101492.75
2023-01-04T07:37:39.373Z,101482.69
2023-01-04T07:38:43.653Z,101493.41
2023-01-04T07:39:45.098Z,101491.53
2023-01-04T07:40:56.638Z,101490.69
2023-01-04T07:41:58.551Z,101489.91
2023-01-04T07:43:00.101Z,101485.47
2023-01-04T07:44:01.529Z,101482.75
2023-01-04T07:45:04.549Z,101482.75
2023-01-04T07:46:07.833Z,101482.75
2023-01-04T07:47:09.255Z,101480.06
2023-01-04T07:48:10.630Z,101479.25
2023-01-04T07:49:18.016Z,101480.97
2023-01-04T07:50:19.813Z,101479.16
2023-01-04T07:51:21.243Z,101470.09
2023-01-04T07:52:23.379Z,101475.69
2023-01-04T07:53:24.677Z,101477.44
2023-01-04T07:54:26.127Z,101478.28
2023-01-04T07:55:27.597Z,101461.97
2023-01-04T07:56:29.073Z,101466.44
2023-01-04T07:57:30.497Z,101464.72
2023-01-04T07:58:32.943Z,101460.16
2023-01-04T07:59:34.394Z,101454.78
2023-01-04T08:00:35.823Z,101459.19
2023-01-04T08:01:40.567Z,101460.16
2023-01-04T08:02:42.313Z,101451.16
2023-01-04T08:03:46.990Z,101448.31
2023-01-04T08:04:48.506Z,101442.94
2023-01-04T08:05:51.191Z,101440.25
2023-01-04T08:06:52.889Z,101444.81
2023-01-04T08:07:54.364Z,101438.47
2023-01-04T08:08:55.870Z,101442.94
2023-01-04T08:09:57.332Z,101432.09
2023-01-04T08:11:07.440Z,101423.09
2023-01-04T08:12:08.887Z,101424.03
2023-01-04T08:13:10.302Z,101417.75
2023-01-04T08:14:11.747Z,101413.22
2023-01-04T08:15:14.801Z,101411.41
2023-01-04T08:16:32.678Z,101404.34
2023-01-04T08:17:34.225Z,101408.81
2023-01-04T08:18:35.625Z,101394.44
2023-01-04T08:19:37.370Z,101393.56
2023-01-04T08:20:38.904Z,101392.59
2023-01-04T08:21:40.755Z,101398.09
2023-01-04T08:22:42.244Z,101393.56
2023-01-04T08:23:43.827Z,101402.59
2023-01-04T08:24:45.235Z,101393.53
2023-01-04T08:25:46.691Z,101384.56
2023-01-04T08:26:48.307Z,101389.06
2023-01-04T08:27:49.759Z,101388.16
2023-01-04T08:28:51.774Z,101389.13
2023-01-04T08:29:53.169Z,101374.66
2023-01-04T08:30:57.157Z,101378.38
2023-01-04T08:31:58.570Z,101383.75
2023-01-04T08:33:00.443Z,101386.44
2023-01-04T08:34:04.950Z,101390.09
2023-01-04T08:35:06.672Z,101368.38
2023-01-04T08:36:09.561Z,101398.22
2023-01-04T08:37:11.013Z,101401.84
2023-01-04T08:38:57.659Z,101387.50
2023-01-04T08:39:36.055Z,101387.47
2023-01-04T08:41:01.785Z,101395.66
2023-01-04T08:43:20.409Z,101388.34
2023-01-04T08:44:24.285Z,101383.84
2023-01-04T08:45:25.765Z,101373.00
2023-01-04T08:46:27.234Z,101376.69
2023-01-04T08:47:30.237Z,101371.31
2023-01-04T08:48:33.549Z,101368.63
2023-01-04T08:49:35.030Z,101359.53
2023-01-04T08:50:36.443Z,101358.63
2023-01-04T08:51:38.444Z,101355.94
2023-01-04T08:52:41.358Z,101360.47
2023-01-04T08:53:43.168Z,101364.97
2023-01-04T08:54:46.030Z,101370.41
2023-01-04T08:55:51.984Z,101369.53
2023-01-04T08:56:53.469Z,101371.31
2023-01-04T08:57:55.158Z,101370.47
2023-01-04T08:58:56.647Z,101375.00
2023-01-04T09:00:00.713Z,101368.69
2023-01-04T09:01:02.889Z,101365.97
2023-01-04T09:02:05.965Z,101366.84
2023-01-04T09:03:07.699Z,101356.03
2023-01-04T09:04:09.846Z,101359.69
2023-01-04T09:05:11.415Z,101363.28
2023-01-04T09:06:26.601Z,101360.59
2023-01-04T09:07:34.727Z,101370.50
2023-01-04T09:08:36.814Z,101367.78
2023-01-04T09:09:38.357Z,101358.72
2023-01-04T09:10:39.919Z,101355.19
2023-01-04T09:11:41.353Z,101372.28
2023-01-04T09:12:43.033Z,101349.75
2023-01-04T09:13:45.348Z,101360.56
2023-01-04T09:14:46.812Z,101361.47
2023-01-04T09:15:48.259Z,101346.09
2023-01-04T09:16:49.688Z,101356.03
2023-01-04T09:18:29.217Z,101349.75
2023-01-04T09:19:21.701Z,101349.69
2023-01-04T09:20:23.603Z,101358.78
2023-01-04T09:21:25.007Z,101349.78
2023-01-04T09:22:26.494Z,101356.13
2023-01-04T09:23:28.979Z,101356.13
2023-01-04T09:24:35.487Z,101352.53
2023-01-04T09:25:40.048Z,101356.16
2023-01-04T09:26:41.492Z,101342.63
2023-01-04T09:27:47.375Z,101345.31
2023-01-04T09:28:50.300Z,101344.41
2023-01-04T09:29:51.735Z,101333.56
2023-01-04T09:30:55.241Z,101319.13
2023-01-04T09:31:56.794Z,101334.44
2023-01-04T09:32:58.290Z,101344.44
2023-01-04T09:34:17.007Z,101339.06
2023-01-04T09:35:19.222Z,101331.81
2023-01-04T09:36:21.351Z,101322.81
2023-01-04T09:37:22.920Z,101313.75
2023-01-04T09:38:24.361Z,101318.28
2023-01-04T09:39:26.360Z,101312.94
2023-01-04T09:40:33.781Z,101316.56
2023-01-04T09:41:38.715Z,101318.34
2023-01-04T09:42:44.061Z,101304.81
2023-01-04T09:43:48.178Z,101309.34
2023-01-04T09:45:22.382Z,101307.56
2023-01-04T09:46:34.520Z,101294.03
2023-01-04T09:47:58.198Z,101296.69
2023-01-04T09:49:18.384Z,101290.41
2023-01-04T09:50:28.441Z,101298.53
2023-01-04T09:51:34.539Z,101288.56
2023-01-04T09:52:47.482Z,101296.72
2023-01-04T09:53:58.122Z,101295.81
2023-01-04T09:55:36.529Z,101281.38
2023-01-04T09:56:31.989Z,101276.00
2023-01-04T09:57:37.378Z,101284.09
2023-01-04T09:58:42.100Z,101274.16
2023-01-04T09:59:44.194Z,101277.78
2023-01-04T10:00:47.751Z,101267.88
2023-01-04T10:01:55.659Z,101282.34
2023-01-04T10:03:06.317Z,101267.94
2023-01-04T10:04:20.584Z,101265.22
2023-01-04T10:05:26.190Z,101270.66
2023-01-04T10:06:28.065Z,101259.78
2023-01-04T10:07:34.376Z,101260.69
2023-01-04T10:08:36.127Z,101247.19
2023-01-04T10:09:37.587Z,101251.69
2023-01-04T10:10:56.203Z,101237.22
2023-01-04T10:12:25.625Z,101236.38
2023-01-04T10:13:26.998Z,101243.63
2023-01-04T10:14:54.645Z,101232.75
2023-01-04T10:17:10.946Z,101234.56
2023-01-04T10:21:53.563Z,101225.53
2023-01-04T10:23:13.680Z,101225.59
2023-01-04T10:24:25.331Z,101230.03
2023-01-04T10:25:47.937Z,101221.03
2023-01-04T10:26:51.036Z,101210.19
2023-01-04T10:27:52.359Z,101211.09
2023-01-04T10:29:08.844Z,101207.47
2023-01-04T10:30:16.147Z,101212.00
2023-01-04T10:31:40.279Z,101209.28
2023-01-04T10:32:47.063Z,101211.09
2023-01-04T10:34:05.290Z,101202.09
2023-01-04T10:35:27.163Z,101196.66
2023-01-04T10:36:33.908Z,101201.16
2023-01-04T10:37:37.469Z,101191.25
2023-01-04T10:38:40.860Z,101190.34
2023-01-04T10:39:44.562Z,101182.22
2023-01-04T10:40:50.699Z,101191.25
2023-01-04T10:42:06.742Z,101193.03
2023-01-04T10:43:21.901Z,101177.69
2023-01-04T10:44:41.266Z,101180.41
2023-01-04T10:45:56.500Z,101184.03
2023-01-04T10:47:04.060Z,101181.31
2023-01-04T10:48:46.261Z,101184.94
2023-01-04T10:49:56.632Z,101166.88
2023-01-04T10:51:08.991Z,101167.81
2023-01-04T10:52:22.521Z,101164.19
2023-01-04T10:53:39.044Z,101164.19
2023-01-04T10:54:52.926Z,101156.94
2023-01-04T10:56:23.605Z,101154.25
2023-01-04T10:57:38.925Z,101148.84
2023-01-04T10:58:49.505Z,101148.88
2023-01-04T11:00:00.530Z,101147.94
2023-01-04T11:01:43.440Z,101138.03
2023-01-04T11:02:56.157Z,101137.13
2023-01-04T11:04:15.807Z,101134.44
2023-01-04T11:05:22.097Z,101138.06
2023-01-04T11:06:30.097Z,101129.94
2023-01-04T11:07:41.353Z,101135.34
2023-01-04T11:09:17.270Z,101129.03
2023-01-04T11:10:25.670Z,101126.31
2023-01-04T11:11:40.141Z,101129.03
2023-01-04T11:12:41.601Z,101118.22
2023-01-04T11:13:43.079Z,101125.44
2023-01-04T11:14:44.697Z,101119.09
2023-01-04T11:15:47.772Z,101111.91
2023-01-04T11:16:52.293Z,101111.00
2023-01-04T11:17:53.909Z,101119.13
2023-01-04T11:18:55.504Z,101116.44
2023-01-04T11:19:56.973Z,101100.16
2023-01-04T11:20:59.580Z,101108.28
2023-01-04T11:22:14.492Z,101099.25
2023-01-04T11:23:18.388Z,101093.84
2023-01-04T11:24:31.917Z,101102.88
2023-01-04T11:25:40.512Z,101090.22
2023-01-04T11:26:43.674Z,101097.44
2023-01-04T11:27:50.202Z,101091.13
2023-01-04T11:29:05.799Z,101089.34
2023-01-04T11:30:23.028Z,101083.91
2023-01-04T11:31:38.097Z,101071.28
2023-01-04T11:32:46.822Z,101081.19
2023-01-04T11:33:56.139Z,101070.34
2023-01-04T11:34:57.680Z,101083.00
2023-01-04T11:35:59.609Z,101084.81
2023-01-04T11:37:01.142Z,101084.81
2023-01-04T11:38:22.208Z,101086.59
2023-01-04T11:39:25.723Z,101066.72
2023-01-04T11:40:28.610Z,101073.06
2023-01-04T11:41:30.277Z,101077.56
2023-01-04T11:42:31.707Z,101064.94
2023-01-04T11:43:39.281Z,101067.63
2023-01-04T11:44:41.943Z,101066.75
2023-01-04T11:45:56.229Z,101067.66
2023-01-04T11:47:23.332Z,101068.53
2023-01-04T11:48:44.191Z,101055.88
2023-01-04T11:49:45.993Z,101064.03
2023-01-04T11:50:48.482Z,101070.34
2023-01-04T11:51:50.341Z,101055.00
2023-01-04T11:52:51.837Z,101058.63
2023-01-04T11:54:15.492Z,101053.19
2023-01-04T11:55:25.837Z,101056.78
2023-01-04T11:56:29.824Z,101051.38
2023-01-04T11:57:32.042Z,101051.34
2023-01-04T11:58:33.705Z,101050.47
2023-01-04T11:59:35.242Z,101042.31
2023-01-04T12:00:37.269Z,101043.22
2023-01-04T12:01:41.014Z,101033.28
2023-01-04T12:03:00.758Z,101035.09
2023-01-04T12:04:09.875Z,101036.91
2023-01-04T12:05:29.116Z,101025.16
2023-01-04T12:06:59.938Z,101037.81
2023-01-04T12:08:01.555Z,101023.34
2023-01-04T12:09:03.165Z,101022.41
2023-01-04T12:10:26.530Z,101026.00
2023-01-04T12:11:28.069Z,101021.50
2023-01-04T12:12:33.924Z,101017.91
2023-01-04T12:13:37.722Z,101015.19
2023-01-04T12:14:49.409Z,101003.47
2023-01-04T12:16:12.407Z,101008.84
2023-01-04T12:17:21.550Z,101012.47
2023-01-04T12:18:28.554Z,100998.03
2023-01-04T12:19:30.767Z,101002.53
2023-01-04T12:20:32.283Z,101002.50
2023-01-04T12:21:35.174Z,100995.31
2023-01-04T12:22:40.713Z,100996.13
2023-01-04T12:23:45.328Z,101004.31
2023-01-04T12:24:47.225Z,101008.81
2023-01-04T12:25:51.432Z,100999.75
2023-01-04T12:26:57.079Z,100997.94
2023-01-04T12:27:58.808Z,100997.94
2023-01-04T12:29:27.207Z,100996.09
2023-01-04T12:30:41.959Z,100994.34
2023-01-04T12:31:46.358Z,100986.19
2023-01-04T12:32:48.040Z,100988.94
2023-01-04T12:33:56.143Z,100994.38
2023-01-04T12:34:57.647Z,100992.50
2023-01-04T12:36:14.438Z,100987.09
2023-01-04T12:37:37.522Z,100992.53
2023-01-04T12:39:05.381Z,100988.91
2023-01-04T12:40:44.413Z,100986.19
2023-01-04T12:42:01.246Z,100983.50
2023-01-04T12:43:18.824Z,100980.78
2023-01-04T12:44:47.654Z,100969.06
2023-01-04T12:46:32.368Z,100963.59
2023-01-04T12:47:55.224Z,100967.22
2023-01-04T12:49:05.574Z,100959.09